sensor_id;sensor_type;location;lat;lon;timestamp;temperature;humidity
30865;DHT22;17574;49.418;11.038;2022-10-31T00:00:57;11.40;85.10
30865;DHT22;17574;49.418;11.038;2022-10-31T00:03:24;11.30;85.80
30865;DHT22;17574;49.418;11.038;2022-10-31T00:05:52;11.30;85.40
30865;DHT22;17574;49.418;11.038;2022-10-31T00:08:19;11.40;86.00
30865;DHT22;17574;49.418;11.038;2022-10-31T00:10:46;11.30;86.60
30865;DHT22;17574;49.418;11.038;2022-10-31T00:13:13;11.30;86.70
30865;DHT22;17574;49.418;11.038;2022-10-31T00:15:40;11.30;86.60
30865;DHT22;17574;49.418;11.038;2022-10-31T00:18:07;11.20;86.50
30865;DHT22;17574;49.418;11.038;2022-10-31T00:20:34;11.20;86.50
30865;DHT22;17574;49.418;11.038;2022-10-31T00:23:01;11.20;86.50
30865;DHT22;17574;49.418;11.038;2022-10-31T00:25:28;11.20;86.50
30865;DHT22;17574;49.418;11.038;2022-10-31T00:27:55;11.20;86.60
30865;DHT22;17574;49.418;11.038;2022-10-31T00:30:22;11.20;86.60
30865;DHT22;17574;49.418;11.038;2022-10-31T00:32:48;11.20;87.90
30865;DHT22;17574;49.418;11.038;2022-10-31T00:35:15;11.10;89.20
30865;DHT22;17574;49.418;11.038;2022-10-31T00:37:41;11.10;89.70
30865;DHT22;17574;49.418;11.038;2022-10-31T00:40:08;11.10;89.50
30865;DHT22;17574;49.418;11.038;2022-10-31T00:42:35;11.10;88.70
30865;DHT22;17574;49.418;11.038;2022-10-31T00:45:01;11.10;88.30
30865;DHT22;17574;49.418;11.038;2022-10-31T00:47:28;11.10;87.90
30865;DHT22;17574;49.418;11.038;2022-10-31T00:49:55;11.10;89.50
30865;DHT22;17574;49.418;11.038;2022-10-31T00:52:21;11.10;90.40
30865;DHT22;17574;49.418;11.038;2022-10-31T00:54:48;11.20;91.00
30865;DHT22;17574;49.418;11.038;2022-10-31T00:57:14;11.10;92.00
30865;DHT22;17574;49.418;11.038;2022-10-31T00:59:41;11.10;92.00
30865;DHT22;17574;49.418;11.038;2022-10-31T01:02:07;11.10;92.40
30865;DHT22;17574;49.418;11.038;2022-10-31T01:04:34;11.20;93.00
30865;DHT22;17574;49.418;11.038;2022-10-31T01:07:01;11.20;93.30
30865;DHT22;17574;49.418;11.038;2022-10-31T01:09:27;11.20;93.40
30865;DHT22;17574;49.418;11.038;2022-10-31T01:11:54;11.20;93.50
30865;DHT22;17574;49.418;11.038;2022-10-31T01:14:20;11.20;93.60
30865;DHT22;17574;49.418;11.038;2022-10-31T01:16:47;11.20;93.70
30865;DHT22;17574;49.418;11.038;2022-10-31T01:19:14;11.20;94.10
30865;DHT22;17574;49.418;11.038;2022-10-31T01:21:40;11.30;94.40
30865;DHT22;17574;49.418;11.038;2022-10-31T01:24:07;11.30;94.80
30865;DHT22;17574;49.418;11.038;2022-10-31T01:26:34;11.30;94.70
30865;DHT22;17574;49.418;11.038;2022-10-31T01:29:03;11.30;94.70
30865;DHT22;17574;49.418;11.038;2022-10-31T01:31:31;11.30;95.00
30865;DHT22;17574;49.418;11.038;2022-10-31T01:33:57;11.30;94.80
30865;DHT22;17574;49.418;11.038;2022-10-31T01:38:55;11.20;94.60
30865;DHT22;17574;49.418;11.038;2022-10-31T01:41:23;11.20;94.70
30865;DHT22;17574;49.418;11.038;2022-10-31T01:44:00;11.20;94.60
30865;DHT22;17574;49.418;11.038;2022-10-31T01:46:29;11.20;94.70
30865;DHT22;17574;49.418;11.038;2022-10-31T01:48:57;11.20;94.40
30865;DHT22;17574;49.418;11.038;2022-10-31T01:51:26;11.20;94.00
30865;DHT22;17574;49.418;11.038;2022-10-31T01:53:55;11.20;93.80
30865;DHT22;17574;49.418;11.038;2022-10-31T01:56:22;11.10;93.10
30865;DHT22;17574;49.418;11.038;2022-10-31T01:58:49;11.10;92.70
30865;DHT22;17574;49.418;11.038;2022-10-31T02:01:16;11.00;92.00
30865;DHT22;17574;49.418;11.038;2022-10-31T02:03:44;11.00;91.90
30865;DHT22;17574;49.418;11.038;2022-10-31T02:06:14;11.00;91.90
30865;DHT22;17574;49.418;11.038;2022-10-31T02:08:45;11.00;91.80
30865;DHT22;17574;49.418;11.038;2022-10-31T02:11:12;10.90;91.30
30865;DHT22;17574;49.418;11.038;2022-10-31T02:13:38;10.80;90.90
30865;DHT22;17574;49.418;11.038;2022-10-31T02:16:05;10.80;91.80
30865;DHT22;17574;49.418;11.038;2022-10-31T02:18:32;10.80;91.80
30865;DHT22;17574;49.418;11.038;2022-10-31T02:21:04;10.80;91.80
30865;DHT22;17574;49.418;11.038;2022-10-31T02:31:21;10.90;92.90
30865;DHT22;17574;49.418;11.038;2022-10-31T02:33:52;10.90;93.80
30865;DHT22;17574;49.418;11.038;2022-10-31T02:36:22;10.90;94.20
30865;DHT22;17574;49.418;11.038;2022-10-31T02:44:23;10.90;93.30
30865;DHT22;17574;49.418;11.038;2022-10-31T02:46:59;10.90;92.70
30865;DHT22;17574;49.418;11.038;2022-10-31T02:49:50;10.80;92.30
30865;DHT22;17574;49.418;11.038;2022-10-31T02:52:22;10.80;91.80
30865;DHT22;17574;49.418;11.038;2022-10-31T02:54:50;10.80;91.80
30865;DHT22;17574;49.418;11.038;2022-10-31T02:57:17;10.80;91.80
30865;DHT22;17574;49.418;11.038;2022-10-31T02:59:49;11.00;92.30
30865;DHT22;17574;49.418;11.038;2022-10-31T03:04:49;10.70;91.80
30865;DHT22;17574;49.418;11.038;2022-10-31T03:07:20;10.70;91.80
30865;DHT22;17574;49.418;11.038;2022-10-31T03:12:27;10.60;90.40
30865;DHT22;17574;49.418;11.038;2022-10-31T03:15:02;10.60;90.80
30865;DHT22;17574;49.418;11.038;2022-10-31T03:19:59;10.70;92.80
30865;DHT22;17574;49.418;11.038;2022-10-31T03:22:27;10.70;93.40
30865;DHT22;17574;49.418;11.038;2022-10-31T03:24:55;10.70;93.60
30865;DHT22;17574;49.418;11.038;2022-10-31T03:27:23;10.70;93.30
30865;DHT22;17574;49.418;11.038;2022-10-31T03:29:51;10.70;93.10
30865;DHT22;17574;49.418;11.038;2022-10-31T03:32:21;10.70;92.50
30865;DHT22;17574;49.418;11.038;2022-10-31T03:34:48;10.60;92.20
30865;DHT22;17574;49.418;11.038;2022-10-31T03:37:17;10.60;91.80
30865;DHT22;17574;49.418;11.038;2022-10-31T03:39:44;10.60;92.20
30865;DHT22;17574;49.418;11.038;2022-10-31T03:42:15;10.70;92.60
30865;DHT22;17574;49.418;11.038;2022-10-31T03:44:44;10.60;92.70
30865;DHT22;17574;49.418;11.038;2022-10-31T03:47:12;10.50;93.30
30865;DHT22;17574;49.418;11.038;2022-10-31T03:49:39;10.50;93.50
30865;DHT22;17574;49.418;11.038;2022-10-31T03:52:25;10.60;93.50
30865;DHT22;17574;49.418;11.038;2022-10-31T03:54:55;10.60;93.40
30865;DHT22;17574;49.418;11.038;2022-10-31T03:59:58;10.50;92.00
30865;DHT22;17574;49.418;11.038;2022-10-31T04:02:28;10.40;91.70
30865;DHT22;17574;49.418;11.038;2022-10-31T04:04:55;10.40;90.90
30865;DHT22;17574;49.418;11.038;2022-10-31T04:07:22;10.40;90.30
30865;DHT22;17574;49.418;11.038;2022-10-31T04:09:51;10.30;89.50
30865;DHT22;17574;49.418;11.038;2022-10-31T04:12:18;10.30;89.60
30865;DHT22;17574;49.418;11.038;2022-10-31T04:14:46;10.30;90.00
30865;DHT22;17574;49.418;11.038;2022-10-31T04:17:14;10.30;90.60
30865;DHT22;17574;49.418;11.038;2022-10-31T04:19:43;10.30;90.70
30865;DHT22;17574;49.418;11.038;2022-10-31T04:22:09;10.20;90.00
30865;DHT22;17574;49.418;11.038;2022-10-31T04:24:37;10.10;89.50
30865;DHT22;17574;49.418;11.038;2022-10-31T04:27:04;10.10;88.20
30865;DHT22;17574;49.418;11.038;2022-10-31T04:29:30;10.10;88.00
30865;DHT22;17574;49.418;11.038;2022-10-31T04:31:57;10.00;87.40
30865;DHT22;17574;49.418;11.038;2022-10-31T04:34:23;10.00;87.80
30865;DHT22;17574;49.418;11.038;2022-10-31T04:36:50;10.10;87.90
30865;DHT22;17574;49.418;11.038;2022-10-31T04:39:16;10.00;88.10
30865;DHT22;17574;49.418;11.038;2022-10-31T04:41:51;10.00;87.90
30865;DHT22;17574;49.418;11.038;2022-10-31T04:44:17;9.90;87.70
30865;DHT22;17574;49.418;11.038;2022-10-31T04:46:44;9.90;86.50
30865;DHT22;17574;49.418;11.038;2022-10-31T04:49:10;9.90;86.40
30865;DHT22;17574;49.418;11.038;2022-10-31T04:51:37;9.90;86.40
30865;DHT22;17574;49.418;11.038;2022-10-31T04:54:04;9.80;86.30
30865;DHT22;17574;49.418;11.038;2022-10-31T04:56:30;9.80;86.30
30865;DHT22;17574;49.418;11.038;2022-10-31T04:58:57;9.70;86.20
30865;DHT22;17574;49.418;11.038;2022-10-31T05:01:24;9.70;86.20
30865;DHT22;17574;49.418;11.038;2022-10-31T05:03:51;9.70;86.30
30865;DHT22;17574;49.418;11.038;2022-10-31T05:06:17;9.70;87.00
30865;DHT22;17574;49.418;11.038;2022-10-31T05:08:44;9.60;87.00
30865;DHT22;17574;49.418;11.038;2022-10-31T05:11:10;9.60;87.30
30865;DHT22;17574;49.418;11.038;2022-10-31T05:13:37;9.60;88.70
30865;DHT22;17574;49.418;11.038;2022-10-31T05:16:04;9.70;89.40
30865;DHT22;17574;49.418;11.038;2022-10-31T05:18:30;9.60;90.00
30865;DHT22;17574;49.418;11.038;2022-10-31T05:20:57;9.70;90.50
30865;DHT22;17574;49.418;11.038;2022-10-31T05:23:23;9.70;90.60
30865;DHT22;17574;49.418;11.038;2022-10-31T05:25:50;9.60;90.30
30865;DHT22;17574;49.418;11.038;2022-10-31T05:28:17;9.60;90.40
30865;DHT22;17574;49.418;11.038;2022-10-31T05:30:43;9.60;90.30
30865;DHT22;17574;49.418;11.038;2022-10-31T05:33:10;9.60;90.60
30865;DHT22;17574;49.418;11.038;2022-10-31T05:35:36;9.60;90.40
30865;DHT22;17574;49.418;11.038;2022-10-31T05:38:03;9.90;90.40
30865;DHT22;17574;49.418;11.038;2022-10-31T05:40:29;9.50;89.20
30865;DHT22;17574;49.418;11.038;2022-10-31T05:42:56;9.50;89.20
30865;DHT22;17574;49.418;11.038;2022-10-31T05:45:25;9.50;89.60
30865;DHT22;17574;49.418;11.038;2022-10-31T05:47:56;9.50;90.00
30865;DHT22;17574;49.418;11.038;2022-10-31T05:50:24;9.50;90.00
30865;DHT22;17574;49.418;11.038;2022-10-31T05:52:55;9.50;88.80
30865;DHT22;17574;49.418;11.038;2022-10-31T05:55:22;9.50;88.30
30865;DHT22;17574;49.418;11.038;2022-10-31T05:57:48;9.40;86.10
30865;DHT22;17574;49.418;11.038;2022-10-31T06:00:15;9.40;86.00
30865;DHT22;17574;49.418;11.038;2022-10-31T06:02:41;9.40;86.00
30865;DHT22;17574;49.418;11.038;2022-10-31T06:05:08;9.30;85.90
30865;DHT22;17574;49.418;11.038;2022-10-31T06:07:35;9.40;86.00
30865;DHT22;17574;49.418;11.038;2022-10-31T06:10:03;9.30;85.90
30865;DHT22;17574;49.418;11.038;2022-10-31T06:12:30;9.30;85.90
30865;DHT22;17574;49.418;11.038;2022-10-31T06:14:57;9.30;84.90
30865;DHT22;17574;49.418;11.038;2022-10-31T06:17:23;9.30;85.30
30865;DHT22;17574;49.418;11.038;2022-10-31T06:19:50;9.30;85.90
30865;DHT22;17574;49.418;11.038;2022-10-31T06:22:16;9.40;86.00
30865;DHT22;17574;49.418;11.038;2022-10-31T06:24:43;9.40;86.50
30865;DHT22;17574;49.418;11.038;2022-10-31T06:27:10;9.40;87.20
30865;DHT22;17574;49.418;11.038;2022-10-31T06:29:36;9.50;88.30
30865;DHT22;17574;49.418;11.038;2022-10-31T06:32:03;9.50;88.10
30865;DHT22;17574;49.418;11.038;2022-10-31T06:34:29;9.50;89.50
30865;DHT22;17574;49.418;11.038;2022-10-31T06:36:56;9.60;90.00
30865;DHT22;17574;49.418;11.038;2022-10-31T06:39:22;9.70;90.30
30865;DHT22;17574;49.418;11.038;2022-10-31T06:41:49;9.70;90.80
30865;DHT22;17574;49.418;11.038;2022-10-31T06:44:16;9.90;90.70
30865;DHT22;17574;49.418;11.038;2022-10-31T06:46:42;9.90;90.60
30865;DHT22;17574;49.418;11.038;2022-10-31T06:49:09;10.00;90.20
30865;DHT22;17574;49.418;11.038;2022-10-31T06:51:35;10.10;89.70
30865;DHT22;17574;49.418;11.038;2022-10-31T06:54:02;10.10;88.10
30865;DHT22;17574;49.418;11.038;2022-10-31T06:56:28;10.20;86.80
30865;DHT22;17574;49.418;11.038;2022-10-31T06:58:55;10.20;86.70
30865;DHT22;17574;49.418;11.038;2022-10-31T07:01:22;10.40;85.90
30865;DHT22;17574;49.418;11.038;2022-10-31T07:03:49;10.70;85.80
30865;DHT22;17574;49.418;11.038;2022-10-31T07:06:15;10.70;84.40
30865;DHT22;17574;49.418;11.038;2022-10-31T07:08:42;10.90;84.50
30865;DHT22;17574;49.418;11.038;2022-10-31T07:11:08;11.00;82.50
30865;DHT22;17574;49.418;11.038;2022-10-31T07:13:35;11.30;81.00
30865;DHT22;17574;49.418;11.038;2022-10-31T07:16:02;11.40;78.70
30865;DHT22;17574;49.418;11.038;2022-10-31T07:18:29;11.50;78.60
30865;DHT22;17574;49.418;11.038;2022-10-31T07:20:56;11.60;77.20
30865;DHT22;17574;49.418;11.038;2022-10-31T07:23:22;11.80;75.40
30865;DHT22;17574;49.418;11.038;2022-10-31T07:25:53;11.80;74.20
30865;DHT22;17574;49.418;11.038;2022-10-31T07:28:20;12.10;73.20
30865;DHT22;17574;49.418;11.038;2022-10-31T07:30:50;12.30;72.10
30865;DHT22;17574;49.418;11.038;2022-10-31T07:33:17;12.70;69.10
30865;DHT22;17574;49.418;11.038;2022-10-31T07:35:44;13.00;65.20
30865;DHT22;17574;49.418;11.038;2022-10-31T07:38:11;13.30;62.00
30865;DHT22;17574;49.418;11.038;2022-10-31T07:40:38;13.70;57.20
30865;DHT22;17574;49.418;11.038;2022-10-31T07:43:05;13.90;48.70
30865;DHT22;17574;49.418;11.038;2022-10-31T07:45:36;14.30;46.20
30865;DHT22;17574;49.418;11.038;2022-10-31T07:48:03;14.60;38.60
30865;DHT22;17574;49.418;11.038;2022-10-31T07:50:31;14.70;34.80
30865;DHT22;17574;49.418;11.038;2022-10-31T07:53:07;14.90;36.50
30865;DHT22;17574;49.418;11.038;2022-10-31T07:55:34;15.30;31.60
30865;DHT22;17574;49.418;11.038;2022-10-31T07:58:04;15.60;28.10
30865;DHT22;17574;49.418;11.038;2022-10-31T08:00:32;15.90;26.90
30865;DHT22;17574;49.418;11.038;2022-10-31T08:03:03;16.10;23.80
30865;DHT22;17574;49.418;11.038;2022-10-31T08:05:30;16.40;22.90
30865;DHT22;17574;49.418;11.038;2022-10-31T08:07:57;16.80;18.90
30865;DHT22;17574;49.418;11.038;2022-10-31T08:10:25;17.10;17.50
30865;DHT22;17574;49.418;11.038;2022-10-31T08:12:58;17.40;14.70
30865;DHT22;17574;49.418;11.038;2022-10-31T08:15:25;17.60;12.90
30865;DHT22;17574;49.418;11.038;2022-10-31T08:17:52;18.00;10.30
30865;DHT22;17574;49.418;11.038;2022-10-31T08:20:19;18.10;8.90
30865;DHT22;17574;49.418;11.038;2022-10-31T08:22:52;18.50;6.60
30865;DHT22;17574;49.418;11.038;2022-10-31T08:25:19;19.10;5.80
30865;DHT22;17574;49.418;11.038;2022-10-31T08:27:52;19.00;2.20
30865;DHT22;17574;49.418;11.038;2022-10-31T08:30:20;19.20;2.70
30865;DHT22;17574;49.418;11.038;2022-10-31T08:32:47;19.30;2.20
30865;DHT22;17574;49.418;11.038;2022-10-31T08:35:14;19.70;1.00
30865;DHT22;17574;49.418;11.038;2022-10-31T08:37:41;20.00;1.00
30865;DHT22;17574;49.418;11.038;2022-10-31T08:40:07;20.30;1.00
30865;DHT22;17574;49.418;11.038;2022-10-31T08:42:34;20.30;1.00
30865;DHT22;17574;49.418;11.038;2022-10-31T08:45:01;20.40;1.00
30865;DHT22;17574;49.418;11.038;2022-10-31T08:47:27;20.80;1.00
30865;DHT22;17574;49.418;11.038;2022-10-31T08:49:54;21.20;1.00
30865;DHT22;17574;49.418;11.038;2022-10-31T08:52:22;21.80;1.00
30865;DHT22;17574;49.418;11.038;2022-10-31T08:55:09;22.20;1.00
30865;DHT22;17574;49.418;11.038;2022-10-31T08:57:35;22.90;1.00
30865;DHT22;17574;49.418;11.038;2022-10-31T09:00:02;23.40;1.00
30865;DHT22;17574;49.418;11.038;2022-10-31T09:02:29;24.10;1.00
30865;DHT22;17574;49.418;11.038;2022-10-31T09:04:55;24.60;1.00
30865;DHT22;17574;49.418;11.038;2022-10-31T09:07:22;24.80;1.00
30865;DHT22;17574;49.418;11.038;2022-10-31T09:09:49;25.40;1.00
30865;DHT22;17574;49.418;11.038;2022-10-31T09:12:15;25.70;1.00
30865;DHT22;17574;49.418;11.038;2022-10-31T09:14:42;26.40;1.00
30865;DHT22;17574;49.418;11.038;2022-10-31T09:17:08;26.60;1.00
30865;DHT22;17574;49.418;11.038;2022-10-31T09:19:35;26.80;1.00
30865;DHT22;17574;49.418;11.038;2022-10-31T09:22:02;27.10;1.00
30865;DHT22;17574;49.418;11.038;2022-10-31T09:24:29;27.50;1.00
30865;DHT22;17574;49.418;11.038;2022-10-31T09:26:55;28.30;1.00
30865;DHT22;17574;49.418;11.038;2022-10-31T09:29:22;28.40;1.00
30865;DHT22;17574;49.418;11.038;2022-10-31T09:31:48;28.10;1.00
30865;DHT22;17574;49.418;11.038;2022-10-31T09:34:15;28.50;1.00
30865;DHT22;17574;49.418;11.038;2022-10-31T09:36:42;28.90;1.00
30865;DHT22;17574;49.418;11.038;2022-10-31T09:39:09;29.20;1.00
30865;DHT22;17574;49.418;11.038;2022-10-31T09:44:12;29.80;1.00
30865;DHT22;17574;49.418;11.038;2022-10-31T09:54:42;29.80;1.00
30865;DHT22;17574;49.418;11.038;2022-10-31T09:57:13;30.30;1.00
30865;DHT22;17574;49.418;11.038;2022-10-31T09:59:40;29.90;1.00
30865;DHT22;17574;49.418;11.038;2022-10-31T10:04:38;29.90;1.00
30865;DHT22;17574;49.418;11.038;2022-10-31T10:07:13;29.50;1.00
30865;DHT22;17574;49.418;11.038;2022-10-31T10:09:40;29.20;1.00
30865;DHT22;17574;49.418;11.038;2022-10-31T10:12:16;29.40;1.00
30865;DHT22;17574;49.418;11.038;2022-10-31T10:14:49;29.50;1.00
30865;DHT22;17574;49.418;11.038;2022-10-31T10:17:26;30.40;1.00
30865;DHT22;17574;49.418;11.038;2022-10-31T10:22:37;31.20;1.00
30865;DHT22;17574;49.418;11.038;2022-10-31T10:27:50;31.20;1.00
30865;DHT22;17574;49.418;11.038;2022-10-31T10:30:23;31.60;1.00
30865;DHT22;17574;49.418;11.038;2022-10-31T10:32:54;31.80;1.00
30865;DHT22;17574;49.418;11.038;2022-10-31T10:35:27;32.20;1.00
30865;DHT22;17574;49.418;11.038;2022-10-31T10:37:56;30.70;1.00
30865;DHT22;17574;49.418;11.038;2022-10-31T10:40:27;31.00;1.00
30865;DHT22;17574;49.418;11.038;2022-10-31T10:45:49;29.90;1.00
30865;DHT22;17574;49.418;11.038;2022-10-31T10:48:41;29.60;1.00
30865;DHT22;17574;49.418;11.038;2022-10-31T10:51:10;30.10;1.00
30865;DHT22;17574;49.418;11.038;2022-10-31T10:54:03;30.40;1.00
30865;DHT22;17574;49.418;11.038;2022-10-31T10:56:49;30.40;1.00
30865;DHT22;17574;49.418;11.038;2022-10-31T10:59:18;29.00;1.00
30865;DHT22;17574;49.418;11.038;2022-10-31T11:01:45;28.00;1.00
30865;DHT22;17574;49.418;11.038;2022-10-31T11:04:21;27.60;1.00
30865;DHT22;17574;49.418;11.038;2022-10-31T11:09:47;26.90;1.00
30865;DHT22;17574;49.418;11.038;2022-10-31T11:12:19;26.60;1.00
30865;DHT22;17574;49.418;11.038;2022-10-31T11:14:54;26.60;1.00
30865;DHT22;17574;49.418;11.038;2022-10-31T11:17:30;26.40;1.00
30865;DHT22;17574;49.418;11.038;2022-10-31T11:20:05;26.40;1.00
30865;DHT22;17574;49.418;11.038;2022-10-31T11:22:32;26.20;1.00
30865;DHT22;17574;49.418;11.038;2022-10-31T11:24:58;26.00;1.00
30865;DHT22;17574;49.418;11.038;2022-10-31T11:27:25;26.00;1.00
30865;DHT22;17574;49.418;11.038;2022-10-31T11:29:52;26.10;1.00
30865;DHT22;17574;49.418;11.038;2022-10-31T11:32:26;26.30;1.00
30865;DHT22;17574;49.418;11.038;2022-10-31T11:34:54;26.10;1.00
30865;DHT22;17574;49.418;11.038;2022-10-31T11:37:23;26.40;1.00
30865;DHT22;17574;49.418;11.038;2022-10-31T11:39:52;26.30;1.00
30865;DHT22;17574;49.418;11.038;2022-10-31T11:42:20;26.70;1.00
30865;DHT22;17574;49.418;11.038;2022-10-31T11:44:47;26.60;1.00
30865;DHT22;17574;49.418;11.038;2022-10-31T11:47:15;26.70;1.00
30865;DHT22;17574;49.418;11.038;2022-10-31T11:49:43;26.60;1.00
30865;DHT22;17574;49.418;11.038;2022-10-31T11:54:44;26.70;1.00
30865;DHT22;17574;49.418;11.038;2022-10-31T11:57:22;26.80;1.00
30865;DHT22;17574;49.418;11.038;2022-10-31T11:59:53;26.80;1.00
30865;DHT22;17574;49.418;11.038;2022-10-31T12:02:20;26.90;1.00
30865;DHT22;17574;49.418;11.038;2022-10-31T12:05:04;27.00;1.00
30865;DHT22;17574;49.418;11.038;2022-10-31T12:07:31;27.00;1.00
30865;DHT22;17574;49.418;11.038;2022-10-31T12:09:57;26.70;1.00
30865;DHT22;17574;49.418;11.038;2022-10-31T12:12:31;27.10;1.00
30865;DHT22;17574;49.418;11.038;2022-10-31T12:15:04;27.30;1.00
30865;DHT22;17574;49.418;11.038;2022-10-31T12:22:43;27.30;1.00
30865;DHT22;17574;49.418;11.038;2022-10-31T12:25:26;27.40;1.00
30865;DHT22;17574;49.418;11.038;2022-10-31T12:28:03;27.70;1.00
30865;DHT22;17574;49.418;11.038;2022-10-31T12:30:57;27.70;1.00
30865;DHT22;17574;49.418;11.038;2022-10-31T12:33:29;27.70;1.00
30865;DHT22;17574;49.418;11.038;2022-10-31T12:38:35;27.50;1.00
30865;DHT22;17574;49.418;11.038;2022-10-31T12:41:14;27.30;1.00
30865;DHT22;17574;49.418;11.038;2022-10-31T12:43:45;27.10;1.00
30865;DHT22;17574;49.418;11.038;2022-10-31T12:51:46;27.10;1.00
30865;DHT22;17574;49.418;11.038;2022-10-31T12:54:28;27.10;1.00
30865;DHT22;17574;49.418;11.038;2022-10-31T12:57:20;27.00;1.00
30865;DHT22;17574;49.418;11.038;2022-10-31T12:59:53;26.80;1.00
30865;DHT22;17574;49.418;11.038;2022-10-31T13:02:27;26.60;1.00
30865;DHT22;17574;49.418;11.038;2022-10-31T13:04:58;26.40;1.00
30865;DHT22;17574;49.418;11.038;2022-10-31T13:07:34;26.10;1.00
30865;DHT22;17574;49.418;11.038;2022-10-31T13:10:07;25.70;1.00
30865;DHT22;17574;49.418;11.038;2022-10-31T13:12:39;25.40;1.00
30865;DHT22;17574;49.418;11.038;2022-10-31T13:15:17;25.00;1.00
30865;DHT22;17574;49.418;11.038;2022-10-31T13:17:46;25.00;1.00
30865;DHT22;17574;49.418;11.038;2022-10-31T13:20:15;24.90;1.00
30865;DHT22;17574;49.418;11.038;2022-10-31T13:22:44;24.70;1.00
30865;DHT22;17574;49.418;11.038;2022-10-31T13:25:16;24.70;1.00
30865;DHT22;17574;49.418;11.038;2022-10-31T13:30:29;24.20;1.00
30865;DHT22;17574;49.418;11.038;2022-10-31T13:37:54;24.10;1.00
30865;DHT22;17574;49.418;11.038;2022-10-31T13:40:35;24.00;1.00
30865;DHT22;17574;49.418;11.038;2022-10-31T13:45:30;23.90;1.00
30865;DHT22;17574;49.418;11.038;2022-10-31T13:47:58;23.90;1.00
30865;DHT22;17574;49.418;11.038;2022-10-31T13:50:30;23.90;1.00
30865;DHT22;17574;49.418;11.038;2022-10-31T14:03:36;24.00;1.00
30865;DHT22;17574;49.418;11.038;2022-10-31T14:06:23;24.00;1.00
30865;DHT22;17574;49.418;11.038;2022-10-31T14:09:00;24.00;1.00
30865;DHT22;17574;49.418;11.038;2022-10-31T14:11:27;23.80;1.00
30865;DHT22;17574;49.418;11.038;2022-10-31T14:14:02;23.60;1.00
30865;DHT22;17574;49.418;11.038;2022-10-31T14:16:30;23.40;1.00
30865;DHT22;17574;49.418;11.038;2022-10-31T14:19:00;23.20;1.00
30865;DHT22;17574;49.418;11.038;2022-10-31T14:21:28;23.10;1.00
30865;DHT22;17574;49.418;11.038;2022-10-31T14:23:56;23.00;1.00
30865;DHT22;17574;49.418;11.038;2022-10-31T14:28:55;22.80;3.40
30865;DHT22;17574;49.418;11.038;2022-10-31T14:31:29;22.70;3.80
30865;DHT22;17574;49.418;11.038;2022-10-31T14:36:40;22.40;6.00
30865;DHT22;17574;49.418;11.038;2022-10-31T14:39:11;22.20;8.70
30865;DHT22;17574;49.418;11.038;2022-10-31T14:47:14;22.00;11.40
30865;DHT22;17574;49.418;11.038;2022-10-31T14:52:12;21.70;13.90
30865;DHT22;17574;49.418;11.038;2022-10-31T14:54:44;21.70;13.90
30865;DHT22;17574;49.418;11.038;2022-10-31T14:57:19;21.30;16.80
30865;DHT22;17574;49.418;11.038;2022-10-31T14:59:48;21.10;19.10
30865;DHT22;17574;49.418;11.038;2022-10-31T15:02:28;20.90;21.10
30865;DHT22;17574;49.418;11.038;2022-10-31T15:04:56;20.80;22.80
30865;DHT22;17574;49.418;11.038;2022-10-31T15:07:23;20.60;23.80
30865;DHT22;17574;49.418;11.038;2022-10-31T15:10:01;20.50;27.20
30865;DHT22;17574;49.418;11.038;2022-10-31T15:12:29;20.40;27.20
30865;DHT22;17574;49.418;11.038;2022-10-31T15:14:56;20.20;29.10
30865;DHT22;17574;49.418;11.038;2022-10-31T15:17:23;20.10;32.50
30865;DHT22;17574;49.418;11.038;2022-10-31T15:19:50;19.80;35.80
30865;DHT22;17574;49.418;11.038;2022-10-31T15:22:18;19.80;35.40
30865;DHT22;17574;49.418;11.038;2022-10-31T15:24:45;19.60;37.10
30865;DHT22;17574;49.418;11.038;2022-10-31T15:27:15;19.50;39.80
30865;DHT22;17574;49.418;11.038;2022-10-31T15:29:52;19.40;42.60
30865;DHT22;17574;49.418;11.038;2022-10-31T15:32:20;19.30;44.50
30865;DHT22;17574;49.418;11.038;2022-10-31T15:34:48;19.60;41.80
30865;DHT22;17574;49.418;11.038;2022-10-31T15:37:19;19.50;42.20
30865;DHT22;17574;49.418;11.038;2022-10-31T15:39:46;19.40;44.20
30865;DHT22;17574;49.418;11.038;2022-10-31T15:42:18;19.30;45.60
30865;DHT22;17574;49.418;11.038;2022-10-31T15:44:47;19.10;47.90
30865;DHT22;17574;49.418;11.038;2022-10-31T15:47:16;18.90;49.80
30865;DHT22;17574;49.418;11.038;2022-10-31T15:49:53;18.80;51.10
30865;DHT22;17574;49.418;11.038;2022-10-31T15:52:34;18.70;53.60
30865;DHT22;17574;49.418;11.038;2022-10-31T15:55:03;18.60;54.70
30865;DHT22;17574;49.418;11.038;2022-10-31T15:57:31;18.60;54.20
30865;DHT22;17574;49.418;11.038;2022-10-31T15:59:57;18.50;56.30
30865;DHT22;17574;49.418;11.038;2022-10-31T16:02:25;18.40;57.10
30865;DHT22;17574;49.418;11.038;2022-10-31T16:04:55;18.30;57.90
30865;DHT22;17574;49.418;11.038;2022-10-31T16:07:23;18.20;57.80
30865;DHT22;17574;49.418;11.038;2022-10-31T16:09:50;18.20;59.80
30865;DHT22;17574;49.418;11.038;2022-10-31T16:12:17;18.10;61.80
30865;DHT22;17574;49.418;11.038;2022-10-31T16:14:48;18.00;62.60
30865;DHT22;17574;49.418;11.038;2022-10-31T16:17:17;18.00;62.30
30865;DHT22;17574;49.418;11.038;2022-10-31T16:20:02;17.90;63.00
30865;DHT22;17574;49.418;11.038;2022-10-31T16:22:30;17.80;64.70
30865;DHT22;17574;49.418;11.038;2022-10-31T16:25:04;17.80;66.60
30865;DHT22;17574;49.418;11.038;2022-10-31T16:27:35;17.70;66.80
30865;DHT22;17574;49.418;11.038;2022-10-31T16:30:03;17.60;66.70
30865;DHT22;17574;49.418;11.038;2022-10-31T16:32:52;17.50;66.60
30865;DHT22;17574;49.418;11.038;2022-10-31T16:35:33;17.50;66.60
30865;DHT22;17574;49.418;11.038;2022-10-31T16:38:00;17.40;66.50
30865;DHT22;17574;49.418;11.038;2022-10-31T16:40:26;17.30;67.20
30865;DHT22;17574;49.418;11.038;2022-10-31T16:42:53;17.20;69.00
30865;DHT22;17574;49.418;11.038;2022-10-31T16:45:23;17.10;69.50
30865;DHT22;17574;49.418;11.038;2022-10-31T16:47:50;17.00;69.00
30865;DHT22;17574;49.418;11.038;2022-10-31T16:50:24;16.90;69.30
30865;DHT22;17574;49.418;11.038;2022-10-31T16:52:51;16.80;69.30
30865;DHT22;17574;49.418;11.038;2022-10-31T16:55:41;16.70;69.50
30865;DHT22;17574;49.418;11.038;2022-10-31T16:58:09;16.60;70.20
30865;DHT22;17574;49.418;11.038;2022-10-31T17:00:38;16.50;71.20
30865;DHT22;17574;49.418;11.038;2022-10-31T17:03:05;16.60;72.20
30865;DHT22;17574;49.418;11.038;2022-10-31T17:05:31;16.50;74.50
30865;DHT22;17574;49.418;11.038;2022-10-31T17:07:58;16.40;74.40
30865;DHT22;17574;49.418;11.038;2022-10-31T17:10:26;16.30;74.80
30865;DHT22;17574;49.418;11.038;2022-10-31T17:12:52;16.20;74.20
30865;DHT22;17574;49.418;11.038;2022-10-31T17:15:20;16.10;72.60